sensor_id;sensor_type;location;lat;lon;timestamp;pressure;altitude;pressure_sealevel;temperature;humidity
46846;BME280;33947;46.804;134.252;2023-04-09T00:02:54;100492.47;;;2.88;67.64
46846;BME280;33947;46.804;134.252;2023-04-09T00:06:00;100494.84;;;2.34;69.51
46846;BME280;33947;46.804;134.252;2023-04-09T00:09:05;100520.41;;;2.75;68.21
46846;BME280;33947;46.804;134.252;2023-04-09T00:12:09;100520.47;;;2.94;69.40
46846;BME280;33947;46.804;134.252;2023-04-09T00:15:13;100507.28;;;2.69;69.09
46846;BME280;33947;46.804;134.252;2023-04-09T00:18:32;100497.75;;;3.01;69.23
46846;BME280;33947;46.804;134.252;2023-04-09T00:21:36;100490.75;;;2.95;69.72
46846;BME280;33947;46.804;134.252;2023-04-09T00:24:42;100495.13;;;2.98;69.79
46846;BME280;33947;46.804;134.252;2023-04-09T00:27:47;100503.94;;;3.20;68.69
46846;BME280;33947;46.804;134.252;2023-04-09T00:30:51;100497.00;;;3.55;67.84
46846;BME280;33947;46.804;134.252;2023-04-09T00:34:01;100508.41;;;3.99;66.94
46846;BME280;33947;46.804;134.252;2023-04-09T00:37:05;100502.28;;;4.03;66.30
46846;BME280;33947;46.804;134.252;2023-04-09T00:40:09;100497.00;;;4.23;65.64
46846;BME280;33947;46.804;134.252;2023-04-09T00:43:13;100493.44;;;4.55;64.57
46846;BME280;33947;46.804;134.252;2023-04-09T00:46:17;100493.44;;;4.60;64.46
46846;BME280;33947;46.804;134.252;2023-04-09T00:49:21;100475.66;;;5.04;63.62
46846;BME280;33947;46.804;134.252;2023-04-09T00:52:29;100477.16;;;5.52;62.36
46846;BME280;33947;46.804;134.252;2023-04-09T00:55:34;100479.56;;;5.81;60.92
46846;BME280;33947;46.804;134.252;2023-04-09T00:58:41;100501.97;;;5.16;62.20
46846;BME280;33947;46.804;134.252;2023-04-09T01:01:46;100468.06;;;5.87;60.78
46846;BME280;33947;46.804;134.252;2023-04-09T01:04:50;100485.16;;;6.44;60.04
46846;BME280;33947;46.804;134.252;2023-04-09T01:21:20;100461.91;;;7.96;54.73
46846;BME280;33947;46.804;134.252;2023-04-09T01:24:53;100467.69;;;7.65;53.93
46846;BME280;33947;46.804;134.252;2023-04-09T01:28:24;100457.13;;;7.66;54.14
46846;BME280;33947;46.804;134.252;2023-04-09T01:31:36;100456.56;;;7.99;53.26
46846;BME280;33947;46.804;134.252;2023-04-09T01:34:41;100442.31;;;8.06;53.59
46846;BME280;33947;46.804;134.252;2023-04-09T01:37:48;100454.59;;;8.10;53.38
46846;BME280;33947;46.804;134.252;2023-04-09T01:40:54;100422.69;;;8.20;53.63
46846;BME280;33947;46.804;134.252;2023-04-09T01:44:01;100436.00;;;8.61;52.03
46846;BME280;33947;46.804;134.252;2023-04-09T01:47:07;100442.56;;;8.87;51.67
46846;BME280;33947;46.804;134.252;2023-04-09T01:50:12;100431.22;;;8.80;52.11
46846;BME280;33947;46.804;134.252;2023-04-09T01:53:16;100439.53;;;9.43;50.41
46846;BME280;33947;46.804;134.252;2023-04-09T01:56:20;100425.97;;;8.78;51.60
46846;BME280;33947;46.804;134.252;2023-04-09T01:59:24;100417.59;;;8.56;51.39
46846;BME280;33947;46.804;134.252;2023-04-09T02:02:36;100387.50;;;8.15;52.45
46846;BME280;33947;46.804;134.252;2023-04-09T02:05:45;100397.50;;;7.99;52.64
46846;BME280;33947;46.804;134.252;2023-04-09T02:08:52;100395.59;;;8.51;52.44
46846;BME280;33947;46.804;134.252;2023-04-09T02:11:58;100400.47;;;8.71;52.57
46846;BME280;33947;46.804;134.252;2023-04-09T02:15:06;100386.69;;;8.57;52.51
46846;BME280;33947;46.804;134.252;2023-04-09T02:18:24;100386.25;;;8.33;53.15
46846;BME280;33947;46.804;134.252;2023-04-09T02:21:30;100384.41;;;8.80;52.57
46846;BME280;33947;46.804;134.252;2023-04-09T02:24:35;100372.22;;;9.11;51.90
46846;BME280;33947;46.804;134.252;2023-04-09T02:27:39;100375.56;;;8.37;52.99
46846;BME280;33947;46.804;134.252;2023-04-09T02:30:43;100346.56;;;8.75;52.78
46846;BME280;33947;46.804;134.252;2023-04-09T02:33:48;100371.25;;;8.76;52.29
46846;BME280;33947;46.804;134.252;2023-04-09T02:36:52;100361.75;;;8.67;52.56
46846;BME280;33947;46.804;134.252;2023-04-09T02:39:56;100357.19;;;8.30;53.31
46846;BME280;33947;46.804;134.252;2023-04-09T02:43:00;100353.78;;;8.67;52.87
46846;BME280;33947;46.804;134.252;2023-04-09T02:46:04;100321.31;;;8.60;52.72
46846;BME280;33947;46.804;134.252;2023-04-09T02:49:09;100333.78;;;8.94;52.16
46846;BME280;33947;46.804;134.252;2023-04-09T02:52:13;100319.06;;;9.19;51.36
46846;BME280;33947;46.804;134.252;2023-04-09T02:55:18;100318.75;;;9.31;51.35
46846;BME280;33947;46.804;134.252;2023-04-09T02:58:22;100292.16;;;9.34;51.15
46846;BME280;33947;46.804;134.252;2023-04-09T03:01:26;100314.28;;;9.68;50.75
46846;BME280;33947;46.804;134.252;2023-04-09T03:04:30;100305.59;;;9.61;50.59
46846;BME280;33947;46.804;134.252;2023-04-09T03:07:34;100304.97;;;9.84;49.93
46846;BME280;33947;46.804;134.252;2023-04-09T03:10:38;100290.84;;;10.16;49.31
46846;BME280;33947;46.804;134.252;2023-04-09T03:13:43;100288.28;;;10.12;49.08
46846;BME280;33947;46.804;134.252;2023-04-09T03:16:46;100262.97;;;9.99;49.11
46846;BME280;33947;46.804;134.252;2023-04-09T03:19:50;100251.13;;;9.81;49.32
46846;BME280;33947;46.804;134.252;2023-04-09T03:22:55;100236.41;;;10.01;48.81
46846;BME280;33947;46.804;134.252;2023-04-09T03:26:11;100241.66;;;10.32;48.97
46846;BME280;33947;46.804;134.252;2023-04-09T03:29:22;100249.81;;;10.26;47.73
46846;BME280;33947;46.804;134.252;2023-04-09T03:32:26;100238.81;;;10.40;47.87
46846;BME280;33947;46.804;134.252;2023-04-09T03:35:30;100211.84;;;10.52;47.52
46846;BME280;33947;46.804;134.252;2023-04-09T03:38:35;100224.13;;;10.83;46.86
46846;BME280;33947;46.804;134.252;2023-04-09T03:41:52;100234.69;;;11.12;46.23
46846;BME280;33947;46.804;134.252;2023-04-09T03:44:56;100219.84;;;11.06;44.43
46846;BME280;33947;46.804;134.252;2023-04-09T03:48:08;100197.47;;;10.86;42.75
46846;BME280;33947;46.804;134.252;2023-04-09T03:51:17;100209.50;;;10.97;42.37
46846;BME280;33947;46.804;134.252;2023-04-09T03:54:28;100136.22;;;10.64;43.00
46846;BME280;33947;46.804;134.252;2023-04-09T03:57:34;100183.38;;;11.35;42.39
46846;BME280;33947;46.804;134.252;2023-04-09T04:00:43;100207.63;;;11.51;42.05
46846;BME280;33947;46.804;134.252;2023-04-09T04:04:05;100200.59;;;11.25;41.66
46846;BME280;33947;46.804;134.252;2023-04-09T04:07:23;100177.94;;;11.13;42.19
46846;BME280;33947;46.804;134.252;2023-04-09T04:10:36;100177.91;;;11.40;40.94
46846;BME280;33947;46.804;134.252;2023-04-09T04:13:42;100184.09;;;11.40;40.18
46846;BME280;33947;46.804;134.252;2023-04-09T04:16:46;100151.03;;;11.48;39.82
46846;BME280;33947;46.804;134.252;2023-04-09T04:19:54;100157.69;;;11.10;38.85
46846;BME280;33947;46.804;134.252;2023-04-09T04:22:59;100151.38;;;11.38;40.13
46846;BME280;33947;46.804;134.252;2023-04-09T04:26:10;100144.88;;;11.69;38.87
46846;BME280;33947;46.804;134.252;2023-04-09T04:35:26;100144.63;;;12.45;38.74
46846;BME280;33947;46.804;134.252;2023-04-09T04:38:35;100142.13;;;12.41;38.30
46846;BME280;33947;46.804;134.252;2023-04-09T04:41:46;100132.28;;;12.21;37.92
46846;BME280;33947;46.804;134.252;2023-04-09T04:44:57;100104.69;;;11.77;37.98
46846;BME280;33947;46.804;134.252;2023-04-09T04:48:17;100111.22;;;11.92;37.24
46846;BME280;33947;46.804;134.252;2023-04-09T04:51:22;100118.56;;;11.85;37.40
46846;BME280;33947;46.804;134.252;2023-04-09T04:54:45;100096.63;;;11.33;37.70
46846;BME280;33947;46.804;134.252;2023-04-09T04:57:54;100048.28;;;11.45;37.47
46846;BME280;33947;46.804;134.252;2023-04-09T05:01:03;100098.53;;;11.99;37.08
46846;BME280;33947;46.804;134.252;2023-04-09T05:04:08;100099.91;;;12.32;37.11
46846;BME280;33947;46.804;134.252;2023-04-09T05:07:12;100101.06;;;12.47;37.02
46846;BME280;33947;46.804;134.252;2023-04-09T05:10:23;100082.91;;;12.56;36.90
46846;BME280;33947;46.804;134.252;2023-04-09T05:13:29;100077.97;;;12.25;36.35
46846;BME280;33947;46.804;134.252;2023-04-09T05:16:39;100082.34;;;12.48;35.68
46846;BME280;33947;46.804;134.252;2023-04-09T05:19:50;100083.88;;;12.54;36.08
46846;BME280;33947;46.804;134.252;2023-04-09T05:23:02;100073.41;;;12.49;35.51
46846;BME280;33947;46.804;134.252;2023-04-09T05:26:13;100053.25;;;12.43;35.66
46846;BME280;33947;46.804;134.252;2023-04-09T05:33:18;100055.09;;;12.62;34.16
46846;BME280;33947;46.804;134.252;2023-04-09T05:36:29;100039.13;;;12.41;34.54
46846;BME280;33947;46.804;134.252;2023-04-09T05:39:36;100041.97;;;12.37;34.42
46846;BME280;33947;46.804;134.252;2023-04-09T05:42:41;100032.38;;;12.33;35.53
46846;BME280;33947;46.804;134.252;2023-04-09T05:45:57;100013.25;;;12.23;34.08
46846;BME280;33947;46.804;134.252;2023-04-09T05:49:01;100022.25;;;12.20;34.40
46846;BME280;33947;46.804;134.252;2023-04-09T05:52:09;100037.25;;;12.43;33.72
46846;BME280;33947;46.804;134.252;2023-04-09T05:55:15;100034.19;;;12.53;32.61
46846;BME280;33947;46.804;134.252;2023-04-09T05:58:27;100018.88;;;12.37;33.04
46846;BME280;33947;46.804;134.252;2023-04-09T06:01:33;100012.09;;;12.08;32.55
46846;BME280;33947;46.804;134.252;2023-04-09T06:04:38;100004.16;;;12.28;33.33
46846;BME280;33947;46.804;134.252;2023-04-09T06:07:42;100008.56;;;12.50;32.56
46846;BME280;33947;46.804;134.252;2023-04-09T06:10:48;99999.66;;;12.51;32.44
46846;BME280;33947;46.804;134.252;2023-04-09T06:13:53;100003.00;;;12.76;32.36
46846;BME280;33947;46.804;134.252;2023-04-09T06:16:58;99975.16;;;12.62;31.81
46846;BME280;33947;46.804;134.252;2023-04-09T06:20:03;99969.31;;;12.54;31.80
46846;BME280;33947;46.804;134.252;2023-04-09T06:23:08;99969.66;;;12.46;32.09
46846;BME280;33947;46.804;134.252;2023-04-09T06:26:12;99961.13;;;12.58;31.77
46846;BME280;33947;46.804;134.252;2023-04-09T06:29:17;99978.38;;;12.70;30.66
46846;BME280;33947;46.804;134.252;2023-04-09T06:32:21;99964.00;;;12.54;30.85
46846;BME280;33947;46.804;134.252;2023-04-09T06:35:26;99963.31;;;12.69;30.57
46846;BME280;33947;46.804;134.252;2023-04-09T06:38:30;99970.00;;;12.78;30.34
46846;BME280;33947;46.804;134.252;2023-04-09T06:41:35;99960.38;;;12.76;29.65
46846;BME280;33947;46.804;134.252;2023-04-09T06:44:48;99953.06;;;12.60;30.66
46846;BME280;33947;46.804;134.252;2023-04-09T06:47:53;99945.47;;;12.51;30.67
46846;BME280;33947;46.804;134.252;2023-04-09T06:50:58;99942.91;;;12.68;29.97
46846;BME280;33947;46.804;134.252;2023-04-09T06:54:02;99935.72;;;12.51;30.02
46846;BME280;33947;46.804;134.252;2023-04-09T06:57:07;99946.84;;;12.40;30.70
46846;BME280;33947;46.804;134.252;2023-04-09T07:00:12;99946.91;;;12.18;31.13
46846;BME280;33947;46.804;134.252;2023-04-09T07:03:17;99951.34;;;12.18;30.99
46846;BME280;33947;46.804;134.252;2023-04-09T07:06:22;99930.66;;;12.04;31.97
46846;BME280;33947;46.804;134.252;2023-04-09T07:09:26;99922.34;;;12.32;30.90
46846;BME280;33947;46.804;134.252;2023-04-09T07:12:32;99937.50;;;12.30;31.20
46846;BME280;33947;46.804;134.252;2023-04-09T07:15:40;99925.75;;;12.55;30.40
46846;BME280;33947;46.804;134.252;2023-04-09T07:18:44;99921.72;;;12.65;30.03
46846;BME280;33947;46.804;134.252;2023-04-09T07:21:50;99903.34;;;12.40;30.39
46846;BME280;33947;46.804;134.252;2023-04-09T07:24:54;99925.06;;;12.51;30.55
46846;BME280;33947;46.804;134.252;2023-04-09T07:27:59;99914.34;;;12.72;30.06
46846;BME280;33947;46.804;134.252;2023-04-09T07:31:04;99918.84;;;12.51;30.41
46846;BME280;33947;46.804;134.252;2023-04-09T07:34:09;99918.53;;;12.38;30.42
46846;BME280;33947;46.804;134.252;2023-04-09T07:37:13;99900.75;;;12.18;30.32
46846;BME280;33947;46.804;134.252;2023-04-09T07:40:21;99914.28;;;12.34;30.09
46846;BME280;33947;46.804;134.252;2023-04-09T07:43:25;99907.69;;;12.22;30.09
46846;BME280;33947;46.804;134.252;2023-04-09T07:46:30;99902.72;;;11.92;30.49
46846;BME280;33947;46.804;134.252;2023-04-09T07:49:35;99872.59;;;11.91;30.06
46846;BME280;33947;46.804;134.252;2023-04-09T07:52:41;99912.81;;;12.06;30.52
46846;BME280;33947;46.804;134.252;2023-04-09T07:55:46;99908.97;;;11.91;31.21
46846;BME280;33947;46.804;134.252;2023-04-09T07:58:50;99890.88;;;11.78;31.74
46846;BME280;33947;46.804;134.252;2023-04-09T08:01:55;99899.50;;;12.06;30.77
46846;BME280;33947;46.804;134.252;2023-04-09T08:05:00;99892.06;;;11.71;31.36
46846;BME280;33947;46.804;134.252;2023-04-09T08:08:05;99899.50;;;11.63;31.76
46846;BME280;33947;46.804;134.252;2023-04-09T08:11:10;99883.31;;;11.47;31.18
46846;BME280;33947;46.804;134.252;2023-04-09T08:14:15;99906.69;;;11.61;30.81
46846;BME280;33947;46.804;134.252;2023-04-09T08:17:20;99879.97;;;11.64;31.05
46846;BME280;33947;46.804;134.252;2023-04-09T08:20:25;99874.91;;;11.57;30.36
46846;BME280;33947;46.804;134.252;2023-04-09T08:23:30;99920.47;;;11.48;30.93
46846;BME280;33947;46.804;134.252;2023-04-09T08:26:34;99915.63;;;11.37;31.24
46846;BME280;33947;46.804;134.252;2023-04-09T08:29:39;99908.50;;;11.15;31.57
46846;BME280;33947;46.804;134.252;2023-04-09T08:32:45;99915.16;;;11.04;31.49
46846;BME280;33947;46.804;134.252;2023-04-09T08:35:50;99909.53;;;10.89;32.26
46846;BME280;33947;46.804;134.252;2023-04-09T08:38:55;99916.59;;;10.89;32.18
46846;BME280;33947;46.804;134.252;2023-04-09T08:41:59;99919.38;;;10.85;32.40
46846;BME280;33947;46.804;134.252;2023-04-09T08:45:07;99895.38;;;10.65;32.35
46846;BME280;33947;46.804;134.252;2023-04-09T08:48:12;99928.38;;;10.57;32.01
46846;BME280;33947;46.804;134.252;2023-04-09T08:51:22;99917.84;;;10.56;32.74
46846;BME280;33947;46.804;134.252;2023-04-09T08:54:26;99902.25;;;10.47;32.90
46846;BME280;33947;46.804;134.252;2023-04-09T08:57:39;99923.69;;;10.40;32.78
46846;BME280;33947;46.804;134.252;2023-04-09T09:00:44;99898.22;;;10.09;33.02
46846;BME280;33947;46.804;134.252;2023-04-09T09:03:59;99909.09;;;10.02;33.23
46846;BME280;33947;46.804;134.252;2023-04-09T09:07:05;99898.75;;;9.94;33.32
46846;BME280;33947;46.804;134.252;2023-04-09T09:10:09;99906.06;;;9.87;33.40
46846;BME280;33947;46.804;134.252;2023-04-09T09:13:29;99876.19;;;9.55;33.72
46846;BME280;33947;46.804;134.252;2023-04-09T09:16:34;99919.13;;;9.66;33.87
46846;BME280;33947;46.804;134.252;2023-04-09T09:19:42;99900.22;;;9.50;34.15
46846;BME280;33947;46.804;134.252;2023-04-09T09:22:50;99920.03;;;9.38;34.75
46846;BME280;33947;46.804;134.252;2023-04-09T09:25:57;99920.22;;;9.04;35.45
46846;BME280;33947;46.804;134.252;2023-04-09T09:29:02;99893.13;;;8.65;36.19
46846;BME280;33947;46.804;134.252;2023-04-09T09:32:12;99916.47;;;8.81;36.25
46846;BME280;33947;46.804;134.252;2023-04-09T09:35:19;99890.84;;;8.53;36.46
46846;BME280;33947;46.804;134.252;2023-04-09T09:38:24;99911.22;;;8.49;36.77
46846;BME280;33947;46.804;134.252;2023-04-09T09:41:29;99912.00;;;8.53;36.77
46846;BME280;33947;46.804;134.252;2023-04-09T09:44:33;99911.28;;;8.15;38.44
46846;BME280;33947;46.804;134.252;2023-04-09T09:47:38;99911.47;;;8.07;38.17
46846;BME280;33947;46.804;134.252;2023-04-09T09:50:47;99912.66;;;7.95;38.33
46846;BME280;33947;46.804;134.252;2023-04-09T09:53:54;99909.13;;;7.94;38.97
46846;BME280;33947;46.804;134.252;2023-04-09T09:57:03;99914.59;;;7.88;39.76
46846;BME280;33947;46.804;134.252;2023-04-09T10:00:11;99921.69;;;7.86;39.53
46846;BME280;33947;46.804;134.252;2023-04-09T10:03:31;99925.56;;;7.73;40.84
46846;BME280;33947;46.804;134.252;2023-04-09T10:06:43;99928.22;;;7.71;40.17
46846;BME280;33947;46.804;134.252;2023-04-09T10:09:49;99929.78;;;7.80;39.58
46846;BME280;33947;46.804;134.252;2023-04-09T10:12:55;99928.69;;;7.89;39.04
46846;BME280;33947;46.804;134.252;2023-04-09T10:16:00;99930.03;;;7.69;39.42
46846;BME280;33947;46.804;134.252;2023-04-09T10:19:05;99926.41;;;7.75;39.23
46846;BME280;33947;46.804;134.252;2023-04-09T10:22:17;99928.78;;;7.84;39.32
46846;BME280;33947;46.804;134.252;2023-04-09T10:25:25;99925.66;;;7.68;39.42
46846;BME280;33947;46.804;134.252;2023-04-09T10:28:30;99937.31;;;6.82;43.20
46846;BME280;33947;46.804;134.252;2023-04-09T10:31:46;99937.38;;;6.79;43.22
46846;BME280;33947;46.804;134.252;2023-04-09T10:34:56;99932.47;;;6.62;43.48
46846;BME280;33947;46.804;134.252;2023-04-09T10:38:02;99925.38;;;6.64;42.81
46846;BME280;33947;46.804;134.252;2023-04-09T10:41:14;99933.31;;;6.62;43.65
46846;BME280;33947;46.804;134.252;2023-04-09T10:44:20;99944.63;;;6.69;43.40
46846;BME280;33947;46.804;134.252;2023-04-09T10:47:36;99927.06;;;6.68;43.40
46846;BME280;33947;46.804;134.252;2023-04-09T10:50:43;99939.13;;;6.36;45.43
46846;BME280;33947;46.804;134.252;2023-04-09T10:53:50;99883.81;;;5.83;45.68
46846;BME280;33947;46.804;134.252;2023-04-09T10:57:10;99937.19;;;5.97;46.74
46846;BME280;33947;46.804;134.252;2023-04-09T11:00:16;99949.09;;;5.67;47.28
46846;BME280;33947;46.804;134.252;2023-04-09T11:03:26;99937.66;;;5.68;47.65
46846;BME280;33947;46.804;134.252;2023-04-09T11:06:35;99872.78;;;5.05;47.74
46846;BME280;33947;46.804;134.252;2023-04-09T11:09:40;99943.97;;;5.59;47.33
46846;BME280;33947;46.804;134.252;2023-04-09T11:12:47;99952.59;;;5.67;47.15
46846;BME280;33947;46.804;134.252;2023-04-09T11:15:52;99936.13;;;5.56;47.30
46846;BME280;33947;46.804;134.252;2023-04-09T11:18:58;99947.91;;;5.85;46.53
46846;BME280;33947;46.804;134.252;2023-04-09T11:22:04;99950.75;;;5.72;46.89
46846;BME280;33947;46.804;134.252;2023-04-09T11:25:09;99957.09;;;5.62;47.32
46846;BME280;33947;46.804;134.252;2023-04-09T11:28:21;99923.06;;;5.48;47.12
46846;BME280;33947;46.804;134.252;2023-04-09T11:31:27;99940.38;;;5.63;47.46
46846;BME280;33947;46.804;134.252;2023-04-09T11:34:32;99937.19;;;5.42;48.00
46846;BME280;33947;46.804;134.252;2023-04-09T11:37:36;99932.16;;;5.25;49.26
46846;BME280;33947;46.804;134.252;2023-04-09T11:40:42;99937.63;;;5.13;49.29
46846;BME280;33947;46.804;134.252;2023-04-09T11:43:51;99907.91;;;5.03;48.67
46846;BME280;33947;46.804;134.252;2023-04-09T11:46:57;99932.50;;;5.02;49.62
46846;BME280;33947;46.804;134.252;2023-04-09T11:50:05;99933.31;;;5.07;49.85
46846;BME280;33947;46.804;134.252;2023-04-09T11:53:20;99921.06;;;5.03;50.31
46846;BME280;33947;46.804;134.252;2023-04-09T11:56:31;99935.03;;;5.10;50.29
46846;BME280;33947;46.804;134.252;2023-04-09T11:59:37;99880.91;;;4.90;49.97
46846;BME280;33947;46.804;134.252;2023-04-09T12:02:50;99917.56;;;5.04;51.07
46846;BME280;33947;46.804;134.252;2023-04-09T12:06:03;99914.88;;;5.07;50.63
46846;BME280;33947;46.804;134.252;2023-04-09T12:09:08;99910.69;;;4.93;50.49
46846;BME280;33947;46.804;134.252;2023-04-09T12:12:22;99917.69;;;4.95;50.45
46846;BME280;33947;46.804;134.252;2023-04-09T12:15:33;99907.91;;;5.03;51.09
46846;BME280;33947;46.804;134.252;2023-04-09T12:18:39;99902.13;;;4.79;51.17
46846;BME280;33947;46.804;134.252;2023-04-09T12:21:54;99927.47;;;4.85;52.32
46846;BME280;33947;46.804;134.252;2023-04-09T12:25:01;99925.06;;;4.68;52.64
46846;BME280;33947;46.804;134.252;2023-04-09T12:28:11;99919.56;;;4.85;52.34
46846;BME280;33947;46.804;134.252;2023-04-09T12:31:19;99924.81;;;4.86;52.44
46846;BME280;33947;46.804;134.252;2023-04-09T12:34:24;99923.22;;;4.73;52.12
46846;BME280;33947;46.804;134.252;2023-04-09T12:37:29;99923.44;;;4.57;53.94
46846;BME280;33947;46.804;134.252;2023-04-09T12:40:35;99917.50;;;5.07;50.46
46846;BME280;33947;46.804;134.252;2023-04-09T12:43:39;99918.25;;;5.17;50.58
46846;BME280;33947;46.804;134.252;2023-04-09T12:46:45;99885.81;;;5.15;49.88
46846;BME280;33947;46.804;134.252;2023-04-09T12:49:50;99896.38;;;5.13;49.83
46846;BME280;33947;46.804;134.252;2023-04-09T12:52:55;99901.50;;;5.22;49.69
46846;BME280;33947;46.804;134.252;2023-04-09T12:55:59;99871.22;;;5.48;48.62
46846;BME280;33947;46.804;134.252;2023-04-09T12:59:04;99853.00;;;5.86;46.80
46846;BME280;33947;46.804;134.252;2023-04-09T13:02:09;99875.56;;;6.04;47.02
46846;BME280;33947;46.804;134.252;2023-04-09T13:05:15;99867.25;;;6.23;45.61
46846;BME280;33947;46.804;134.252;2023-04-09T13:08:21;99863.50;;;6.36;44.80
46846;BME280;33947;46.804;134.252;2023-04-09T13:11:25;99861.22;;;6.60;44.87
46846;BME280;33947;46.804;134.252;2023-04-09T13:14:30;99875.22;;;6.65;44.40
46846;BME280;33947;46.804;134.252;2023-04-09T13:17:34;99870.03;;;6.61;44.62
46846;BME280;33947;46.804;134.252;2023-04-09T13:20:40;99859.34;;;6.25;45.60
46846;BME280;33947;46.804;134.252;2023-04-09T13:23:44;99876.69;;;6.35;45.80
46846;BME280;33947;46.804;134.252;2023-04-09T13:26:48;99794.94;;;5.89;45.26
46846;BME280;33947;46.804;134.252;2023-04-09T13:29:54;99879.91;;;6.07;46.53
46846;BME280;33947;46.804;134.252;2023-04-09T13:32:58;99850.75;;;5.13;48.59
46846;BME280;33947;46.804;134.252;2023-04-09T13:36:04;99839.34;;;5.12;49.05
46846;BME280;33947;46.804;134.252;2023-04-09T13:39:09;99859.19;;;5.85;46.97
46846;BME280;33947;46.804;134.252;2023-04-09T13:42:14;99887.03;;;5.48;48.39
46846;BME280;33947;46.804;134.252;2023-04-09T13:45:20;99850.94;;;4.99;49.84
46846;BME280;33947;46.804;134.252;2023-04-09T13:48:26;99862.38;;;4.99;49.56
46846;BME280;33947;46.804;134.252;2023-04-09T13:51:32;99855.00;;;4.62;50.26
46846;BME280;33947;46.804;134.252;2023-04-09T13:54:37;99849.81;;;4.54;50.97
46846;BME280;33947;46.804;134.252;2023-04-09T13:57:41;99866.44;;;4.56;50.85
46846;BME280;33947;46.804;134.252;2023-04-09T14:00:47;99868.22;;;4.54;51.30
46846;BME280;33947;46.804;134.252;2023-04-09T14:03:51;99858.19;;;4.84;50.18
46846;BME280;33947;46.804;134.252;2023-04-09T14:06:56;99849.69;;;4.63;50.48
46846;BME280;33947;46.804;134.252;2023-04-09T14:10:01;99862.97;;;4.53;51.06
46846;BME280;33947;46.804;134.252;2023-04-09T14:13:05;99865.56;;;4.57;51.18
46846;BME280;33947;46.804;134.252;2023-04-09T14:16:13;99841.75;;;4.68;50.54
46846;BME280;33947;46.804;134.252;2023-04-09T14:19:17;99836.63;;;5.18;48.52
46846;BME280;33947;46.804;134.252;2023-04-09T14:22:21;99849.47;;;5.89;46.27
46846;BME280;33947;46.804;134.252;2023-04-09T14:25:25;99824.66;;;5.99;45.70
46846;BME280;33947;46.804;134.252;2023-04-09T14:28:30;99838.31;;;6.21;44.92
46846;BME280;33947;46.804;134.252;2023-04-09T14:31:35;99818.88;;;6.24;44.49
46846;BME280;33947;46.804;134.252;2023-04-09T14:34:39;99824.34;;;5.68;46.74
46846;BME280;33947;46.804;134.252;2023-04-09T14:37:44;99823.03;;;5.92;46.07
46846;BME280;33947;46.804;134.252;2023-04-09T14:40:50;99838.63;;;6.04;45.67
46846;BME280;33947;46.804;134.252;2023-04-09T14:43:54;99832.47;;;5.57;47.82
46846;BME280;33947;46.804;134.252;2023-04-09T14:46:59;99773.81;;;4.93;48.60
46846;BME280;33947;46.804;134.252;2023-04-09T14:50:04;99831.56;;;4.43;51.48
46846;BME280;33947;46.804;134.252;2023-04-09T14:53:08;99822.19;;;4.22;52.24
46846;BME280;33947;46.804;134.252;2023-04-09T14:56:13;99784.16;;;3.78;52.30
46846;BME280;33947;46.804;134.252;2023-04-09T14:59:18;99804.91;;;4.02;52.24
46846;BME280;33947;46.804;134.252;2023-04-09T15:02:23;99777.34;;;3.61;53.04
46846;BME280;33947;46.804;134.252;2023-04-09T15:05:27;99829.34;;;4.11;52.46
46846;BME280;33947;46.804;134.252;2023-04-09T15:08:32;99794.19;;;4.81;48.71
46846;BME280;33947;46.804;134.252;2023-04-09T15:11:37;99817.75;;;5.92;46.00
46846;BME280;33947;46.804;134.252;2023-04-09T15:14:41;99729.38;;;5.74;44.12
46846;BME280;33947;46.804;134.252;2023-04-09T15:17:46;99788.94;;;6.28;43.60
46846;BME280;33947;46.804;134.252;2023-04-09T15:20:51;99802.53;;;6.49;43.06
46846;BME280;33947;46.804;134.252;2023-04-09T15:23:55;99814.50;;;6.65;42.76
46846;BME280;33947;46.804;134.252;2023-04-09T15:27:01;99807.28;;;6.74;42.23
46846;BME280;33947;46.804;134.252;2023-04-09T15:30:06;99788.13;;;6.65;41.84
46846;BME280;33947;46.804;134.252;2023-04-09T15:33:11;99789.56;;;6.79;41.46
46846;BME280;33947;46.804;134.252;2023-04-09T15:36:16;99804.25;;;6.91;41.49
46846;BME280;33947;46.804;134.252;2023-04-09T15:39:21;99782.00;;;6.63;41.04
46846;BME280;33947;46.804;134.252;2023-04-09T15:42:30;99790.38;;;6.83;40.87
46846;BME280;33947;46.804;134.252;2023-04-09T15:45:35;99788.44;;;6.89;40.96
46846;BME280;33947;46.804;134.252;2023-04-09T15:48:40;99810.16;;;7.01;40.96
46846;BME280;33947;46.804;134.252;2023-04-09T15:51:44;99802.13;;;7.05;39.75
46846;BME280;33947;46.804;134.252;2023-04-09T15:54:48;99801.13;;;7.11;40.17
46846;BME280;33947;46.804;134.252;2023-04-09T15:57:52;99778.91;;;7.20;39.61
46846;BME280;33947;46.804;134.252;2023-04-09T16:00:57;99767.22;;;7.29;39.03
46846;BME280;33947;46.804;134.252;2023-04-09T16:04:02;99782.97;;;7.32;39.22
46846;BME280;33947;46.804;134.252;2023-04-09T16:07:07;99791.19;;;7.56;38.63
46846;BME280;33947;46.804;134.252;2023-04-09T16:10:13;99786.63;;;7.61;38.38
46846;BME280;33947;46.804;134.252;2023-04-09T16:13:16;99784.72;;;7.33;39.02
46846;BME280;33947;46.804;134.252;2023-04-09T16:16:21;99779.56;;;7.28;39.10
46846;BME280;33947;46.804;134.252;2023-04-09T16:19:26;99771.84;;;7.20;38.62
46846;BME280;33947;46.804;134.252;2023-04-09T16:22:32;99771.56;;;7.31;38.94
46846;BME280;33947;46.804;134.252;2023-04-09T16:25:36;99767.47;;;7.19;39.09
46846;BME280;33947;46.804;134.252;2023-04-09T16:28:41;99773.53;;;7.23;38.87
46846;BME280;33947;46.804;134.252;2023-04-09T16:31:45;99767.94;;;7.35;38.68